Accueil
METAR-TAF:

METAR-TAF

Aéroports :

Aéroport d'Oxford Kidlington

Oxford, Angleterre

latitude: 51-50-13N, longitude: 1-19-12W, altitude: 82 m

Observation

Le bulletin a été fait il y a 1 heure et 55 minutes, à 22:20 UTC
Vent 7 kt de nord-ouest
Température 7°C
Humidité 70%
Pression 1034 hPa
Visibilité 10 km ou plus
Nuages épars à une hauteur de 3300 ft
Ciel couvert à une hauteur de 3800 ft

METAR: EGTK 262220Z 32007KT 9999 SCT033 OVC038 07/02 Q1034

Heure: 00:15 (00:15 UTC)

Prévision

Le bulletin a été fait il y a 4 heures et 12 minutes, à 20:03 UTC
Prévision valable du 26 à 21 UTC au 26 à 23 UTC
Vent 5 kt de ouest/nord-ouest
Visibilité 10 km ou plus
Nuages épars à une hauteur de 3500 ft

TAF: EGTK 262003Z 2621/2623 30005KT 9999 SCT035

Observations et prévisions météorologiques de plus de 4000 aéroports (messages METAR et TAF).

Les stations disponibles sont représentées par des disques jaunes et rouges sur la carte.

Passer la souris dessus pour voir le nom de la station.

Cliquer dessus pour voir les observations et prévisions météorologiques.

Pour changer de carte: cliquez sur les boutons verts avec une croix noire pour zoomer, sur le bouton vert avec un tiret pour effectuer un zoom arrière, ou sur les flèches vertes pour les cartes adjacentes.


METAR-TAF: